sensor_id;sensor_type;location;lat;lon;timestamp;temperature;humidity
19522;DHT22;9905;52.126;5.596;2023-07-20T00:01:35;17.40;99.90
19522;DHT22;9905;52.126;5.596;2023-07-20T00:04:01;17.30;99.90
19522;DHT22;9905;52.126;5.596;2023-07-20T00:06:28;17.30;99.90
19522;DHT22;9905;52.126;5.596;2023-07-20T00:08:55;17.30;99.90
19522;DHT22;9905;52.126;5.596;2023-07-20T00:11:26;17.30;99.90
19522;DHT22;9905;52.126;5.596;2023-07-20T00:13:53;17.30;99.90
19522;DHT22;9905;52.126;5.596;2023-07-20T00:16:20;17.30;99.90
19522;DHT22;9905;52.126;5.596;2023-07-20T00:18:47;17.40;99.90
19522;DHT22;9905;52.126;5.596;2023-07-20T00:21:14;17.30;99.90
19522;DHT22;9905;52.126;5.596;2023-07-20T00:23:41;17.20;99.90
19522;DHT22;9905;52.126;5.596;2023-07-20T00:26:08;17.20;99.90
19522;DHT22;9905;52.126;5.596;2023-07-20T00:28:36;17.20;99.90
19522;DHT22;9905;52.126;5.596;2023-07-20T00:31:03;17.20;99.90
19522;DHT22;9905;52.126;5.596;2023-07-20T00:33:29;17.10;99.90
19522;DHT22;9905;52.126;5.596;2023-07-20T00:35:56;17.10;99.90
19522;DHT22;9905;52.126;5.596;2023-07-20T00:38:23;17.00;99.90
19522;DHT22;9905;52.126;5.596;2023-07-20T00:40:51;17.00;99.90
19522;DHT22;9905;52.126;5.596;2023-07-20T00:43:18;17.00;99.90
19522;DHT22;9905;52.126;5.596;2023-07-20T00:45:46;17.00;99.90
19522;DHT22;9905;52.126;5.596;2023-07-20T00:48:12;16.90;99.90
19522;DHT22;9905;52.126;5.596;2023-07-20T00:50:40;16.90;99.90
19522;DHT22;9905;52.126;5.596;2023-07-20T00:53:07;16.80;99.90
19522;DHT22;9905;52.126;5.596;2023-07-20T00:55:34;16.70;99.90
19522;DHT22;9905;52.126;5.596;2023-07-20T00:58:01;16.70;99.90
19522;DHT22;9905;52.126;5.596;2023-07-20T01:00:28;16.70;99.90
19522;DHT22;9905;52.126;5.596;2023-07-20T01:02:56;16.60;99.90
19522;DHT22;9905;52.126;5.596;2023-07-20T01:05:27;16.60;99.90
19522;DHT22;9905;52.126;5.596;2023-07-20T01:08:00;16.60;99.90
19522;DHT22;9905;52.126;5.596;2023-07-20T01:10:35;16.50;99.90
19522;DHT22;9905;52.126;5.596;2023-07-20T01:13:03;16.50;99.90
19522;DHT22;9905;52.126;5.596;2023-07-20T01:15:34;16.40;99.90
19522;DHT22;9905;52.126;5.596;2023-07-20T01:18:02;16.40;99.90
19522;DHT22;9905;52.126;5.596;2023-07-20T01:20:32;16.40;99.90
19522;DHT22;9905;52.126;5.596;2023-07-20T01:26:27;16.40;99.90
19522;DHT22;9905;52.126;5.596;2023-07-20T01:29:17;16.30;99.90
19522;DHT22;9905;52.126;5.596;2023-07-20T01:31:52;16.40;99.90
19522;DHT22;9905;52.126;5.596;2023-07-20T01:34:20;16.30;99.90
19522;DHT22;9905;52.126;5.596;2023-07-20T01:36:50;16.30;99.90
19522;DHT22;9905;52.126;5.596;2023-07-20T01:39:19;16.30;99.90
19522;DHT22;9905;52.126;5.596;2023-07-20T01:41:47;16.30;99.90
19522;DHT22;9905;52.126;5.596;2023-07-20T01:44:14;16.20;99.90
19522;DHT22;9905;52.126;5.596;2023-07-20T01:46:41;16.20;99.90
19522;DHT22;9905;52.126;5.596;2023-07-20T01:49:09;16.20;99.90
19522;DHT22;9905;52.126;5.596;2023-07-20T01:51:36;16.10;99.90
19522;DHT22;9905;52.126;5.596;2023-07-20T01:54:02;16.10;99.90
19522;DHT22;9905;52.126;5.596;2023-07-20T01:56:29;16.00;99.90
19522;DHT22;9905;52.126;5.596;2023-07-20T01:58:56;16.00;99.90
19522;DHT22;9905;52.126;5.596;2023-07-20T02:01:23;16.00;99.90
19522;DHT22;9905;52.126;5.596;2023-07-20T02:03:50;16.00;99.90
19522;DHT22;9905;52.126;5.596;2023-07-20T02:06:18;15.90;99.90
19522;DHT22;9905;52.126;5.596;2023-07-20T02:08:45;15.90;99.90
19522;DHT22;9905;52.126;5.596;2023-07-20T02:11:11;15.90;99.90
19522;DHT22;9905;52.126;5.596;2023-07-20T02:13:38;15.90;99.90
19522;DHT22;9905;52.126;5.596;2023-07-20T02:16:05;15.90;99.90
19522;DHT22;9905;52.126;5.596;2023-07-20T02:18:32;15.80;99.90
19522;DHT22;9905;52.126;5.596;2023-07-20T02:21:00;15.80;99.90
19522;DHT22;9905;52.126;5.596;2023-07-20T02:23:29;15.70;99.90
19522;DHT22;9905;52.126;5.596;2023-07-20T02:25:55;15.80;99.90
19522;DHT22;9905;52.126;5.596;2023-07-20T02:28:22;15.70;99.90
19522;DHT22;9905;52.126;5.596;2023-07-20T02:30:49;15.70;99.90
19522;DHT22;9905;52.126;5.596;2023-07-20T02:33:16;15.70;99.90
19522;DHT22;9905;52.126;5.596;2023-07-20T02:35:42;15.70;99.90
19522;DHT22;9905;52.126;5.596;2023-07-20T02:38:09;15.60;99.90
19522;DHT22;9905;52.126;5.596;2023-07-20T02:40:38;15.60;99.90
19522;DHT22;9905;52.126;5.596;2023-07-20T02:43:04;15.60;99.90
19522;DHT22;9905;52.126;5.596;2023-07-20T02:45:31;15.70;99.90
19522;DHT22;9905;52.126;5.596;2023-07-20T02:47:58;15.70;99.90
19522;DHT22;9905;52.126;5.596;2023-07-20T02:50:25;15.60;99.90
19522;DHT22;9905;52.126;5.596;2023-07-20T02:52:52;15.60;99.90
19522;DHT22;9905;52.126;5.596;2023-07-20T02:55:18;15.60;99.90
19522;DHT22;9905;52.126;5.596;2023-07-20T02:57:47;15.60;99.90
19522;DHT22;9905;52.126;5.596;2023-07-20T03:00:14;15.60;99.90
19522;DHT22;9905;52.126;5.596;2023-07-20T03:02:42;15.60;99.90
19522;DHT22;9905;52.126;5.596;2023-07-20T03:05:09;15.70;99.90
19522;DHT22;9905;52.126;5.596;2023-07-20T03:07:36;15.60;99.90
19522;DHT22;9905;52.126;5.596;2023-07-20T03:10:03;15.60;99.90
19522;DHT22;9905;52.126;5.596;2023-07-20T03:12:32;15.60;99.90
19522;DHT22;9905;52.126;5.596;2023-07-20T03:15:01;15.60;99.90
19522;DHT22;9905;52.126;5.596;2023-07-20T03:17:28;15.50;99.90
19522;DHT22;9905;52.126;5.596;2023-07-20T03:19:55;15.50;99.90
19522;DHT22;9905;52.126;5.596;2023-07-20T03:22:21;15.60;99.90
19522;DHT22;9905;52.126;5.596;2023-07-20T03:24:49;15.60;99.90
19522;DHT22;9905;52.126;5.596;2023-07-20T03:27:16;15.40;99.90
19522;DHT22;9905;52.126;5.596;2023-07-20T03:29:43;15.30;99.90
19522;DHT22;9905;52.126;5.596;2023-07-20T03:32:12;15.20;99.90
19522;DHT22;9905;52.126;5.596;2023-07-20T03:34:38;15.20;99.90
19522;DHT22;9905;52.126;5.596;2023-07-20T03:37:05;15.20;99.90
19522;DHT22;9905;52.126;5.596;2023-07-20T03:39:32;15.20;99.90
19522;DHT22;9905;52.126;5.596;2023-07-20T03:42:00;15.20;99.90
19522;DHT22;9905;52.126;5.596;2023-07-20T03:44:27;15.20;99.90
19522;DHT22;9905;52.126;5.596;2023-07-20T03:46:54;15.20;99.90
19522;DHT22;9905;52.126;5.596;2023-07-20T03:49:22;15.20;99.90
19522;DHT22;9905;52.126;5.596;2023-07-20T03:51:49;15.20;99.90
19522;DHT22;9905;52.126;5.596;2023-07-20T03:54:16;15.20;99.90
19522;DHT22;9905;52.126;5.596;2023-07-20T03:56:44;15.20;99.90
19522;DHT22;9905;52.126;5.596;2023-07-20T03:59:12;15.20;99.90
19522;DHT22;9905;52.126;5.596;2023-07-20T04:01:38;15.20;99.90
19522;DHT22;9905;52.126;5.596;2023-07-20T04:04:07;15.20;99.90
19522;DHT22;9905;52.126;5.596;2023-07-20T04:06:36;15.20;99.90
19522;DHT22;9905;52.126;5.596;2023-07-20T04:09:03;15.30;99.90
19522;DHT22;9905;52.126;5.596;2023-07-20T04:11:31;15.40;99.90
19522;DHT22;9905;52.126;5.596;2023-07-20T04:13:58;15.50;99.90
19522;DHT22;9905;52.126;5.596;2023-07-20T04:16:25;15.50;99.90
19522;DHT22;9905;52.126;5.596;2023-07-20T04:18:54;15.40;99.90
19522;DHT22;9905;52.126;5.596;2023-07-20T04:21:21;15.40;99.90
19522;DHT22;9905;52.126;5.596;2023-07-20T04:23:49;15.40;99.90
19522;DHT22;9905;52.126;5.596;2023-07-20T04:26:16;15.40;99.90
19522;DHT22;9905;52.126;5.596;2023-07-20T04:28:43;15.30;99.90
19522;DHT22;9905;52.126;5.596;2023-07-20T04:31:10;15.30;99.90
19522;DHT22;9905;52.126;5.596;2023-07-20T04:33:38;15.40;99.90
19522;DHT22;9905;52.126;5.596;2023-07-20T04:36:05;15.40;99.90
19522;DHT22;9905;52.126;5.596;2023-07-20T04:38:32;15.50;99.90
19522;DHT22;9905;52.126;5.596;2023-07-20T04:41:00;15.40;99.90
19522;DHT22;9905;52.126;5.596;2023-07-20T04:43:28;15.40;99.90
19522;DHT22;9905;52.126;5.596;2023-07-20T04:45:55;15.50;99.90
19522;DHT22;9905;52.126;5.596;2023-07-20T04:48:22;15.60;99.90
19522;DHT22;9905;52.126;5.596;2023-07-20T04:50:49;15.60;99.90
19522;DHT22;9905;52.126;5.596;2023-07-20T04:53:16;15.60;99.90
19522;DHT22;9905;52.126;5.596;2023-07-20T04:55:47;15.70;99.90
19522;DHT22;9905;52.126;5.596;2023-07-20T04:58:17;15.70;99.90
19522;DHT22;9905;52.126;5.596;2023-07-20T05:00:44;15.70;99.90
19522;DHT22;9905;52.126;5.596;2023-07-20T05:03:11;15.70;99.90
19522;DHT22;9905;52.126;5.596;2023-07-20T05:05:38;15.80;99.90
19522;DHT22;9905;52.126;5.596;2023-07-20T05:08:05;15.90;99.90
19522;DHT22;9905;52.126;5.596;2023-07-20T05:10:32;15.90;99.90
19522;DHT22;9905;52.126;5.596;2023-07-20T05:12:59;15.90;99.90
19522;DHT22;9905;52.126;5.596;2023-07-20T05:15:27;15.90;99.90
19522;DHT22;9905;52.126;5.596;2023-07-20T05:17:54;15.90;99.90
19522;DHT22;9905;52.126;5.596;2023-07-20T05:20:21;16.00;99.90
19522;DHT22;9905;52.126;5.596;2023-07-20T05:22:48;16.00;99.90
19522;DHT22;9905;52.126;5.596;2023-07-20T05:25:15;16.10;99.90
19522;DHT22;9905;52.126;5.596;2023-07-20T05:27:44;16.10;99.90
19522;DHT22;9905;52.126;5.596;2023-07-20T05:30:11;16.10;99.90
19522;DHT22;9905;52.126;5.596;2023-07-20T05:32:40;16.20;99.90
19522;DHT22;9905;52.126;5.596;2023-07-20T05:35:07;16.20;99.90
19522;DHT22;9905;52.126;5.596;2023-07-20T05:37:37;16.20;99.90
19522;DHT22;9905;52.126;5.596;2023-07-20T05:40:05;16.30;99.90
19522;DHT22;9905;52.126;5.596;2023-07-20T05:42:33;16.30;99.90
19522;DHT22;9905;52.126;5.596;2023-07-20T05:45:00;16.40;99.90
19522;DHT22;9905;52.126;5.596;2023-07-20T05:47:27;16.40;99.90
19522;DHT22;9905;52.126;5.596;2023-07-20T05:49:55;16.40;99.90
19522;DHT22;9905;52.126;5.596;2023-07-20T05:52:24;16.40;99.90
19522;DHT22;9905;52.126;5.596;2023-07-20T05:54:51;16.50;99.90
19522;DHT22;9905;52.126;5.596;2023-07-20T05:57:18;16.50;99.90
19522;DHT22;9905;52.126;5.596;2023-07-20T05:59:47;16.50;99.90
19522;DHT22;9905;52.126;5.596;2023-07-20T06:02:13;16.50;99.90
19522;DHT22;9905;52.126;5.596;2023-07-20T06:04:40;16.50;99.90
19522;DHT22;9905;52.126;5.596;2023-07-20T06:07:08;16.60;99.90
19522;DHT22;9905;52.126;5.596;2023-07-20T06:09:35;16.60;99.90
19522;DHT22;9905;52.126;5.596;2023-07-20T06:12:02;16.60;99.90
19522;DHT22;9905;52.126;5.596;2023-07-20T06:14:29;16.60;99.90
19522;DHT22;9905;52.126;5.596;2023-07-20T06:16:56;16.70;99.90
19522;DHT22;9905;52.126;5.596;2023-07-20T06:19:23;16.70;99.90
19522;DHT22;9905;52.126;5.596;2023-07-20T06:21:50;16.80;99.90
19522;DHT22;9905;52.126;5.596;2023-07-20T06:24:18;16.80;99.90
19522;DHT22;9905;52.126;5.596;2023-07-20T06:26:45;16.90;99.90
19522;DHT22;9905;52.126;5.596;2023-07-20T06:29:12;17.10;99.90
19522;DHT22;9905;52.126;5.596;2023-07-20T06:31:39;17.20;99.90
19522;DHT22;9905;52.126;5.596;2023-07-20T06:34:06;17.30;99.90
19522;DHT22;9905;52.126;5.596;2023-07-20T06:36:32;17.30;99.90
19522;DHT22;9905;52.126;5.596;2023-07-20T06:38:59;17.40;99.90
19522;DHT22;9905;52.126;5.596;2023-07-20T06:41:29;17.40;99.90
19522;DHT22;9905;52.126;5.596;2023-07-20T06:43:56;17.50;99.90
19522;DHT22;9905;52.126;5.596;2023-07-20T06:46:26;17.40;99.90
19522;DHT22;9905;52.126;5.596;2023-07-20T06:48:55;17.40;99.90
19522;DHT22;9905;52.126;5.596;2023-07-20T06:51:22;17.40;99.90
19522;DHT22;9905;52.126;5.596;2023-07-20T06:53:49;17.50;99.90
19522;DHT22;9905;52.126;5.596;2023-07-20T06:56:16;17.50;99.90
19522;DHT22;9905;52.126;5.596;2023-07-20T06:58:44;17.60;99.90
19522;DHT22;9905;52.126;5.596;2023-07-20T07:01:11;17.60;99.90
19522;DHT22;9905;52.126;5.596;2023-07-20T07:03:37;17.70;99.90
19522;DHT22;9905;52.126;5.596;2023-07-20T07:06:04;17.70;99.90
19522;DHT22;9905;52.126;5.596;2023-07-20T07:08:31;17.60;99.90
19522;DHT22;9905;52.126;5.596;2023-07-20T07:10:58;17.60;99.90
19522;DHT22;9905;52.126;5.596;2023-07-20T07:13:25;17.70;99.90
19522;DHT22;9905;52.126;5.596;2023-07-20T07:15:53;17.70;99.90
19522;DHT22;9905;52.126;5.596;2023-07-20T07:18:20;17.60;99.90
19522;DHT22;9905;52.126;5.596;2023-07-20T07:20:51;17.70;99.90
19522;DHT22;9905;52.126;5.596;2023-07-20T07:23:18;17.70;99.90
19522;DHT22;9905;52.126;5.596;2023-07-20T07:25:45;17.70;99.90
19522;DHT22;9905;52.126;5.596;2023-07-20T07:28:12;17.80;99.90
19522;DHT22;9905;52.126;5.596;2023-07-20T07:30:39;17.80;99.90
19522;DHT22;9905;52.126;5.596;2023-07-20T07:33:08;17.90;99.90
19522;DHT22;9905;52.126;5.596;2023-07-20T07:35:35;18.00;99.90
19522;DHT22;9905;52.126;5.596;2023-07-20T07:38:02;18.10;99.90
19522;DHT22;9905;52.126;5.596;2023-07-20T07:40:28;18.20;99.90
19522;DHT22;9905;52.126;5.596;2023-07-20T07:42:54;18.30;99.90
19522;DHT22;9905;52.126;5.596;2023-07-20T07:45:21;18.40;99.90
19522;DHT22;9905;52.126;5.596;2023-07-20T07:47:48;18.60;99.90
19522;DHT22;9905;52.126;5.596;2023-07-20T07:50:16;18.80;99.90
19522;DHT22;9905;52.126;5.596;2023-07-20T07:52:43;18.80;99.90
19522;DHT22;9905;52.126;5.596;2023-07-20T07:55:10;19.00;99.90
19522;DHT22;9905;52.126;5.596;2023-07-20T07:57:37;19.10;99.90
19522;DHT22;9905;52.126;5.596;2023-07-20T08:00:05;19.30;99.90
19522;DHT22;9905;52.126;5.596;2023-07-20T08:02:36;19.20;99.90
19522;DHT22;9905;52.126;5.596;2023-07-20T08:05:03;19.20;99.90
19522;DHT22;9905;52.126;5.596;2023-07-20T08:07:31;19.20;99.90
19522;DHT22;9905;52.126;5.596;2023-07-20T08:09:58;19.30;99.90
19522;DHT22;9905;52.126;5.596;2023-07-20T08:12:26;19.20;99.90
19522;DHT22;9905;52.126;5.596;2023-07-20T08:14:53;19.30;99.90
19522;DHT22;9905;52.126;5.596;2023-07-20T08:17:19;19.30;99.90
19522;DHT22;9905;52.126;5.596;2023-07-20T08:19:46;19.40;99.90
19522;DHT22;9905;52.126;5.596;2023-07-20T08:22:13;19.60;99.90
19522;DHT22;9905;52.126;5.596;2023-07-20T08:24:43;19.80;99.90
19522;DHT22;9905;52.126;5.596;2023-07-20T08:27:10;19.80;99.90
19522;DHT22;9905;52.126;5.596;2023-07-20T08:29:37;19.90;99.90
19522;DHT22;9905;52.126;5.596;2023-07-20T08:32:06;20.00;99.90
19522;DHT22;9905;52.126;5.596;2023-07-20T08:34:33;20.00;99.90
19522;DHT22;9905;52.126;5.596;2023-07-20T08:37:00;20.20;99.90
19522;DHT22;9905;52.126;5.596;2023-07-20T08:39:27;20.20;99.90
19522;DHT22;9905;52.126;5.596;2023-07-20T08:41:56;20.40;99.90
19522;DHT22;9905;52.126;5.596;2023-07-20T08:44:25;20.50;99.90
19522;DHT22;9905;52.126;5.596;2023-07-20T08:46:53;20.60;99.90
19522;DHT22;9905;52.126;5.596;2023-07-20T08:49:20;20.60;99.90
19522;DHT22;9905;52.126;5.596;2023-07-20T08:51:48;20.70;99.90
19522;DHT22;9905;52.126;5.596;2023-07-20T08:54:16;20.90;99.90
19522;DHT22;9905;52.126;5.596;2023-07-20T08:56:45;20.90;99.90
19522;DHT22;9905;52.126;5.596;2023-07-20T08:59:16;21.00;99.90
19522;DHT22;9905;52.126;5.596;2023-07-20T09:01:44;21.20;99.90
19522;DHT22;9905;52.126;5.596;2023-07-20T09:04:11;21.50;99.90
19522;DHT22;9905;52.126;5.596;2023-07-20T09:06:38;21.70;99.90
19522;DHT22;9905;52.126;5.596;2023-07-20T09:09:05;21.80;99.90
19522;DHT22;9905;52.126;5.596;2023-07-20T09:11:32;21.90;99.90
19522;DHT22;9905;52.126;5.596;2023-07-20T09:14:06;22.10;99.90
19522;DHT22;9905;52.126;5.596;2023-07-20T09:16:47;22.30;99.90
19522;DHT22;9905;52.126;5.596;2023-07-20T09:19:15;22.30;99.90
19522;DHT22;9905;52.126;5.596;2023-07-20T09:21:44;22.40;99.90
19522;DHT22;9905;52.126;5.596;2023-07-20T09:24:12;22.50;99.90
19522;DHT22;9905;52.126;5.596;2023-07-20T09:26:41;22.50;99.90
19522;DHT22;9905;52.126;5.596;2023-07-20T09:29:08;22.60;99.90
19522;DHT22;9905;52.126;5.596;2023-07-20T09:31:37;22.70;99.90
19522;DHT22;9905;52.126;5.596;2023-07-20T09:34:04;22.70;99.90
19522;DHT22;9905;52.126;5.596;2023-07-20T09:36:33;22.70;99.90
19522;DHT22;9905;52.126;5.596;2023-07-20T09:39:01;22.60;99.90
19522;DHT22;9905;52.126;5.596;2023-07-20T09:41:29;22.60;99.90
19522;DHT22;9905;52.126;5.596;2023-07-20T09:43:56;22.60;99.90
19522;DHT22;9905;52.126;5.596;2023-07-20T09:46:23;22.90;99.90
19522;DHT22;9905;52.126;5.596;2023-07-20T09:48:54;23.00;99.90
19522;DHT22;9905;52.126;5.596;2023-07-20T09:51:22;22.80;99.90
19522;DHT22;9905;52.126;5.596;2023-07-20T09:53:50;22.80;99.90
19522;DHT22;9905;52.126;5.596;2023-07-20T09:56:21;22.80;99.90
19522;DHT22;9905;52.126;5.596;2023-07-20T09:58:48;22.80;99.90
19522;DHT22;9905;52.126;5.596;2023-07-20T10:01:19;23.00;99.90
19522;DHT22;9905;52.126;5.596;2023-07-20T10:03:47;22.90;99.90
19522;DHT22;9905;52.126;5.596;2023-07-20T10:06:23;23.20;99.90
19522;DHT22;9905;52.126;5.596;2023-07-20T10:08:53;23.50;99.90
19522;DHT22;9905;52.126;5.596;2023-07-20T10:11:22;23.80;99.90
19522;DHT22;9905;52.126;5.596;2023-07-20T10:13:53;23.60;99.90
19522;DHT22;9905;52.126;5.596;2023-07-20T10:16:24;23.60;99.90
19522;DHT22;9905;52.126;5.596;2023-07-20T10:18:59;23.70;99.90
19522;DHT22;9905;52.126;5.596;2023-07-20T10:21:29;23.90;99.90
19522;DHT22;9905;52.126;5.596;2023-07-20T10:23:57;24.00;99.90
19522;DHT22;9905;52.126;5.596;2023-07-20T10:26:24;24.00;99.90
19522;DHT22;9905;52.126;5.596;2023-07-20T10:28:52;24.00;99.90
19522;DHT22;9905;52.126;5.596;2023-07-20T10:31:19;24.00;99.90
19522;DHT22;9905;52.126;5.596;2023-07-20T10:33:46;23.90;99.90
19522;DHT22;9905;52.126;5.596;2023-07-20T10:36:16;24.00;99.90
19522;DHT22;9905;52.126;5.596;2023-07-20T10:38:53;24.10;99.90
19522;DHT22;9905;52.126;5.596;2023-07-20T10:41:21;24.20;99.90
19522;DHT22;9905;52.126;5.596;2023-07-20T10:43:50;24.50;99.90
19522;DHT22;9905;52.126;5.596;2023-07-20T10:46:34;24.50;99.90
19522;DHT22;9905;52.126;5.596;2023-07-20T10:49:02;24.50;99.90
19522;DHT22;9905;52.126;5.596;2023-07-20T10:51:29;24.60;99.90
19522;DHT22;9905;52.126;5.596;2023-07-20T10:53:58;24.50;99.90
19522;DHT22;9905;52.126;5.596;2023-07-20T10:56:26;24.60;99.90
19522;DHT22;9905;52.126;5.596;2023-07-20T10:58:58;24.70;99.90
19522;DHT22;9905;52.126;5.596;2023-07-20T11:01:28;24.80;99.90
19522;DHT22;9905;52.126;5.596;2023-07-20T11:03:58;25.10;99.90
19522;DHT22;9905;52.126;5.596;2023-07-20T11:06:32;25.30;99.90
19522;DHT22;9905;52.126;5.596;2023-07-20T11:09:06;25.20;99.90
19522;DHT22;9905;52.126;5.596;2023-07-20T11:11:37;25.20;99.90
19522;DHT22;9905;52.126;5.596;2023-07-20T11:14:05;25.40;99.90
19522;DHT22;9905;52.126;5.596;2023-07-20T11:16:34;25.50;99.90
19522;DHT22;9905;52.126;5.596;2023-07-20T11:19:01;25.60;99.90
19522;DHT22;9905;52.126;5.596;2023-07-20T11:21:28;25.60;99.90
19522;DHT22;9905;52.126;5.596;2023-07-20T11:23:55;25.50;99.90
19522;DHT22;9905;52.126;5.596;2023-07-20T11:26:24;25.40;99.90
19522;DHT22;9905;52.126;5.596;2023-07-20T11:28:51;25.50;99.90
19522;DHT22;9905;52.126;5.596;2023-07-20T11:31:18;25.70;99.90
19522;DHT22;9905;52.126;5.596;2023-07-20T11:33:45;25.60;99.90
19522;DHT22;9905;52.126;5.596;2023-07-20T11:36:12;25.50;99.90
19522;DHT22;9905;52.126;5.596;2023-07-20T11:38:41;25.50;99.90
19522;DHT22;9905;52.126;5.596;2023-07-20T11:41:09;25.60;99.90
19522;DHT22;9905;52.126;5.596;2023-07-20T11:43:41;25.80;99.90
19522;DHT22;9905;52.126;5.596;2023-07-20T11:46:09;25.90;99.90
19522;DHT22;9905;52.126;5.596;2023-07-20T11:48:36;26.10;99.90
19522;DHT22;9905;52.126;5.596;2023-07-20T11:51:02;26.30;99.90
19522;DHT22;9905;52.126;5.596;2023-07-20T11:53:30;26.30;99.90
19522;DHT22;9905;52.126;5.596;2023-07-20T11:55:58;26.50;99.90
19522;DHT22;9905;52.126;5.596;2023-07-20T11:58:28;26.70;99.90
19522;DHT22;9905;52.126;5.596;2023-07-20T12:00:56;26.60;99.90
19522;DHT22;9905;52.126;5.596;2023-07-20T12:03:23;26.60;99.90
19522;DHT22;9905;52.126;5.596;2023-07-20T12:05:50;26.60;99.90
19522;DHT22;9905;52.126;5.596;2023-07-20T12:08:17;26.60;99.90
19522;DHT22;9905;52.126;5.596;2023-07-20T12:10:44;26.40;99.90
19522;DHT22;9905;52.126;5.596;2023-07-20T12:13:12;26.30;99.90
19522;DHT22;9905;52.126;5.596;2023-07-20T12:15:39;26.40;99.90
19522;DHT22;9905;52.126;5.596;2023-07-20T12:18:07;26.20;99.90
19522;DHT22;9905;52.126;5.596;2023-07-20T12:20:35;26.10;99.90
19522;DHT22;9905;52.126;5.596;2023-07-20T12:23:04;26.20;99.90
19522;DHT22;9905;52.126;5.596;2023-07-20T12:25:38;26.20;99.90
19522;DHT22;9905;52.126;5.596;2023-07-20T12:28:07;26.10;99.90
19522;DHT22;9905;52.126;5.596;2023-07-20T12:30:34;26.20;99.90
19522;DHT22;9905;52.126;5.596;2023-07-20T12:33:02;26.40;99.90
19522;DHT22;9905;52.126;5.596;2023-07-20T12:35:31;26.50;99.90
19522;DHT22;9905;52.126;5.596;2023-07-20T12:37:58;26.60;99.90
19522;DHT22;9905;52.126;5.596;2023-07-20T12:40:25;26.80;99.90
19522;DHT22;9905;52.126;5.596;2023-07-20T12:42:51;26.80;99.90
19522;DHT22;9905;52.126;5.596;2023-07-20T12:45:18;26.80;99.90
19522;DHT22;9905;52.126;5.596;2023-07-20T12:47:45;26.70;99.90
19522;DHT22;9905;52.126;5.596;2023-07-20T12:50:12;26.70;99.90
19522;DHT22;9905;52.126;5.596;2023-07-20T12:52:40;26.80;99.90
19522;DHT22;9905;52.126;5.596;2023-07-20T12:55:09;26.80;99.90
19522;DHT22;9905;52.126;5.596;2023-07-20T12:57:36;26.70;99.90
19522;DHT22;9905;52.126;5.596;2023-07-20T13:00:04;26.80;99.90
19522;DHT22;9905;52.126;5.596;2023-07-20T13:02:33;26.80;99.90
19522;DHT22;9905;52.126;5.596;2023-07-20T13:05:00;26.80;99.90
19522;DHT22;9905;52.126;5.596;2023-07-20T13:07:30;26.90;99.90
19522;DHT22;9905;52.126;5.596;2023-07-20T13:09:59;26.90;99.90
19522;DHT22;9905;52.126;5.596;2023-07-20T13:12:27;26.70;99.90
19522;DHT22;9905;52.126;5.596;2023-07-20T13:14:54;26.40;99.90
19522;DHT22;9905;52.126;5.596;2023-07-20T13:17:22;26.50;99.90
19522;DHT22;9905;52.126;5.596;2023-07-20T13:19:49;26.30;99.90
19522;DHT22;9905;52.126;5.596;2023-07-20T13:22:16;26.10;99.90
19522;DHT22;9905;52.126;5.596;2023-07-20T13:24:44;26.00;99.90
19522;DHT22;9905;52.126;5.596;2023-07-20T13:27:13;26.00;99.90
19522;DHT22;9905;52.126;5.596;2023-07-20T13:29:39;26.00;99.90
19522;DHT22;9905;52.126;5.596;2023-07-20T13:32:07;25.90;99.90
19522;DHT22;9905;52.126;5.596;2023-07-20T13:34:34;25.90;99.90
19522;DHT22;9905;52.126;5.596;2023-07-20T13:37:02;25.70;99.90
19522;DHT22;9905;52.126;5.596;2023-07-20T13:39:29;25.60;99.90
19522;DHT22;9905;52.126;5.596;2023-07-20T13:41:55;25.70;99.90
19522;DHT22;9905;52.126;5.596;2023-07-20T13:44:24;25.70;99.90
19522;DHT22;9905;52.126;5.596;2023-07-20T13:46:50;25.60;99.90
19522;DHT22;9905;52.126;5.596;2023-07-20T13:49:17;25.60;99.90
19522;DHT22;9905;52.126;5.596;2023-07-20T13:51:44;25.60;99.90
19522;DHT22;9905;52.126;5.596;2023-07-20T13:54:11;25.70;99.90
19522;DHT22;9905;52.126;5.596;2023-07-20T13:56:38;25.60;99.90
19522;DHT22;9905;52.126;5.596;2023-07-20T13:59:05;25.80;99.90
19522;DHT22;9905;52.126;5.596;2023-07-20T14:01:33;25.80;99.90
19522;DHT22;9905;52.126;5.596;2023-07-20T14:04:01;26.00;99.90
19522;DHT22;9905;52.126;5.596;2023-07-20T14:06:30;26.10;99.90
19522;DHT22;9905;52.126;5.596;2023-07-20T14:08:57;26.30;99.90
19522;DHT22;9905;52.126;5.596;2023-07-20T14:11:24;26.50;99.90
19522;DHT22;9905;52.126;5.596;2023-07-20T14:13:52;26.60;99.90
19522;DHT22;9905;52.126;5.596;2023-07-20T14:16:19;26.60;99.90
19522;DHT22;9905;52.126;5.596;2023-07-20T14:18:47;26.60;99.90
19522;DHT22;9905;52.126;5.596;2023-07-20T14:21:14;26.50;99.90
19522;DHT22;9905;52.126;5.596;2023-07-20T14:23:41;26.60;99.90
19522;DHT22;9905;52.126;5.596;2023-07-20T14:26:08;26.50;99.90
19522;DHT22;9905;52.126;5.596;2023-07-20T14:28:35;26.50;99.90
19522;DHT22;9905;52.126;5.596;2023-07-20T14:31:03;26.70;99.90
19522;DHT22;9905;52.126;5.596;2023-07-20T14:33:30;27.00;99.90
19522;DHT22;9905;52.126;5.596;2023-07-20T14:35:58;27.00;99.90
19522;DHT22;9905;52.126;5.596;2023-07-20T14:38:27;27.10;99.90
19522;DHT22;9905;52.126;5.596;2023-07-20T14:40:54;27.00;99.90
19522;DHT22;9905;52.126;5.596;2023-07-20T14:43:20;27.00;99.90
19522;DHT22;9905;52.126;5.596;2023-07-20T14:45:47;26.90;99.90
19522;DHT22;9905;52.126;5.596;2023-07-20T14:48:14;27.10;99.90
19522;DHT22;9905;52.126;5.596;2023-07-20T14:50:41;27.30;99.90
19522;DHT22;9905;52.126;5.596;2023-07-20T14:53:12;27.40;99.90
19522;DHT22;9905;52.126;5.596;2023-07-20T14:55:39;27.40;99.90
19522;DHT22;9905;52.126;5.596;2023-07-20T14:58:06;27.40;99.90
19522;DHT22;9905;52.126;5.596;2023-07-20T15:00:33;27.40;99.90
19522;DHT22;9905;52.126;5.596;2023-07-20T15:03:00;27.30;99.90
19522;DHT22;9905;52.126;5.596;2023-07-20T15:05:27;27.20;99.90
19522;DHT22;9905;52.126;5.596;2023-07-20T15:07:54;27.20;99.90
19522;DHT22;9905;52.126;5.596;2023-07-20T15:10:22;27.10;99.90
19522;DHT22;9905;52.126;5.596;2023-07-20T15:12:49;27.10;99.90
19522;DHT22;9905;52.126;5.596;2023-07-20T15:15:16;26.90;99.90
19522;DHT22;9905;52.126;5.596;2023-07-20T15:17:44;26.80;99.90
19522;DHT22;9905;52.126;5.596;2023-07-20T15:20:12;26.60;99.90
19522;DHT22;9905;52.126;5.596;2023-07-20T15:22:40;26.40;99.90
19522;DHT22;9905;52.126;5.596;2023-07-20T15:25:08;26.60;99.90
19522;DHT22;9905;52.126;5.596;2023-07-20T15:27:37;27.00;99.90
19522;DHT22;9905;52.126;5.596;2023-07-20T15:30:06;27.10;99.90
19522;DHT22;9905;52.126;5.596;2023-07-20T15:32:33;27.40;99.90
19522;DHT22;9905;52.126;5.596;2023-07-20T15:34:59;27.30;99.90
19522;DHT22;9905;52.126;5.596;2023-07-20T15:37:28;26.90;99.90
19522;DHT22;9905;52.126;5.596;2023-07-20T15:39:55;26.80;99.90
19522;DHT22;9905;52.126;5.596;2023-07-20T15:42:21;26.60;99.90
19522;DHT22;9905;52.126;5.596;2023-07-20T15:44:51;26.30;99.90
19522;DHT22;9905;52.126;5.596;2023-07-20T15:47:20;26.20;99.90
19522;DHT22;9905;52.126;5.596;2023-07-20T15:49:48;26.00;99.90
19522;DHT22;9905;52.126;5.596;2023-07-20T15:52:15;25.90;99.90